createdAt,value
2018-03-07T00:00:53.897Z,99.99
2018-03-07T00:02:07.457Z,99.99
2018-03-07T00:03:21.626Z,99.99
2018-03-07T00:04:35.684Z,99.99
2018-03-07T00:05:49.985Z,99.99
2018-03-07T00:07:04.086Z,99.99
2018-03-07T00:08:18.833Z,99.99
2018-03-07T00:09:33.381Z,99.99
2018-03-07T00:10:46.980Z,99.99
2018-03-07T00:12:01.541Z,99.99
2018-03-07T00:13:15.315Z,99.99
2018-03-07T00:14:29.817Z,99.99
2018-03-07T00:15:43.380Z,99.99
2018-03-07T00:16:57.933Z,99.99
2018-03-07T00:18:12.229Z,99.99
2018-03-07T00:19:26.548Z,99.99
2018-03-07T00:20:39.865Z,99.99
2018-03-07T00:21:54.407Z,99.99
2018-03-07T00:23:08.516Z,99.99
2018-03-07T00:24:22.588Z,99.99
2018-03-07T00:25:36.953Z,99.99
2018-03-07T00:26:50.533Z,99.99
2018-03-07T00:28:04.850Z,99.99
2018-03-07T00:29:19.463Z,99.99
2018-03-07T00:30:33.774Z,99.99
2018-03-07T00:31:47.630Z,99.99
2018-03-07T00:33:01.951Z,99.99
2018-03-07T00:34:16.740Z,99.99
2018-03-07T00:35:30.616Z,99.99
2018-03-07T00:36:45.094Z,99.99
2018-03-07T00:37:58.771Z,99.99
2018-03-07T00:39:12.613Z,99.99
2018-03-07T00:40:26.636Z,99.99
2018-03-07T00:41:41.207Z,99.99
2018-03-07T00:42:54.766Z,99.99
2018-03-07T00:44:08.789Z,99.99
2018-03-07T00:45:22.623Z,99.99
2018-03-07T00:46:36.704Z,99.99
2018-03-07T00:47:50.866Z,99.99
2018-03-07T00:58:01.445Z,99.99
2018-03-07T00:59:19.307Z,99.99
2018-03-07T01:00:34.959Z,99.99
2018-03-07T01:01:51.748Z,99.99
2018-03-07T01:03:10.013Z,99.99
2018-03-07T01:04:25.020Z,99.99
2018-03-07T01:05:40.144Z,99.99
2018-03-07T01:06:56.774Z,99.99
2018-03-07T01:08:12.207Z,99.99
2018-03-07T01:09:28.395Z,99.99
2018-03-07T01:10:42.828Z,99.99
2018-03-07T01:11:57.817Z,99.99
2018-03-07T01:13:12.918Z,99.99
2018-03-07T01:14:27.561Z,99.99
2018-03-07T01:15:42.486Z,99.99
2018-03-07T01:16:57.167Z,99.99
2018-03-07T01:18:11.840Z,99.99
2018-03-07T01:19:26.516Z,99.99
2018-03-07T01:20:41.180Z,99.99
2018-03-07T01:21:56.929Z,99.99
2018-03-07T01:23:12.041Z,99.99
2018-03-07T01:24:26.148Z,99.99
2018-03-07T01:25:40.524Z,99.99
2018-03-07T01:26:55.517Z,99.99
2018-03-07T01:28:09.936Z,99.99
2018-03-07T01:29:24.860Z,99.99
2018-03-07T01:30:38.462Z,99.99
2018-03-07T01:31:52.529Z,99.99
2018-03-07T01:33:07.083Z,99.99
2018-03-07T01:34:21.234Z,99.99
2018-03-07T01:35:36.178Z,99.99
2018-03-07T01:36:50.027Z,99.99
2018-03-07T01:38:04.035Z,99.99
2018-03-07T01:39:18.405Z,99.99
2018-03-07T01:40:32.878Z,99.99
2018-03-07T01:41:47.261Z,99.99
2018-03-07T01:43:02.630Z,99.99
2018-03-07T01:44:17.278Z,99.99
2018-03-07T01:45:31.653Z,99.99
2018-03-07T01:46:45.800Z,99.99
2018-03-07T01:48:00.831Z,99.99
2018-03-07T01:49:14.413Z,99.99
2018-03-07T01:50:29.262Z,99.99
2018-03-07T01:51:43.917Z,99.99
2018-03-07T01:52:59.366Z,99.99
2018-03-07T01:54:13.745Z,99.99
2018-03-07T01:55:28.057Z,99.99
2018-03-07T01:56:42.044Z,99.99
2018-03-07T01:57:56.711Z,99.99
2018-03-07T01:59:11.897Z,99.99
2018-03-07T02:00:26.309Z,99.99
2018-03-07T02:01:40.692Z,99.99
2018-03-07T02:02:55.548Z,99.99
2018-03-07T02:04:10.545Z,99.99
2018-03-07T02:05:25.949Z,99.99
2018-03-07T02:06:40.602Z,99.99
2018-03-07T02:07:55.499Z,99.99
2018-03-07T02:09:09.415Z,99.99
2018-03-07T02:10:24.291Z,99.99
2018-03-07T02:11:39.548Z,99.99
2018-03-07T02:12:54.147Z,99.99
2018-03-07T02:14:08.576Z,99.99
2018-03-07T02:15:23.687Z,99.99
2018-03-07T02:16:38.369Z,99.99
2018-03-07T02:17:53.047Z,99.99
2018-03-07T02:19:06.758Z,99.99
2018-03-07T02:20:21.406Z,99.99
2018-03-07T02:21:36.607Z,99.99
2018-03-07T02:22:50.738Z,99.99
2018-03-07T02:24:05.222Z,99.99
2018-03-07T02:25:19.891Z,99.99
2018-03-07T02:26:34.048Z,99.99
2018-03-07T02:27:48.963Z,99.99
2018-03-07T02:29:03.479Z,99.99
2018-03-07T02:30:18.445Z,99.99
2018-03-07T02:31:33.110Z,99.99
2018-03-07T02:32:47.027Z,99.99
2018-03-07T02:34:02.029Z,99.99
2018-03-07T02:35:16.311Z,99.99
2018-03-07T02:36:31.025Z,99.99
2018-03-07T02:37:45.172Z,99.99
2018-03-07T02:38:59.873Z,99.99
2018-03-07T02:40:14.386Z,99.99
2018-03-07T02:41:28.582Z,99.99
2018-03-07T02:42:43.268Z,99.99
2018-03-07T02:43:57.967Z,99.99
2018-03-07T02:45:11.864Z,99.99
2018-03-07T02:46:27.140Z,99.99
2018-03-07T02:47:42.028Z,99.99
2018-03-07T02:48:57.762Z,99.99
2018-03-07T02:50:12.172Z,99.99
2018-03-07T02:51:26.859Z,99.99
2018-03-07T02:52:41.535Z,99.99
2018-03-07T02:53:56.734Z,99.99
2018-03-07T02:55:11.994Z,99.99
2018-03-07T02:56:26.652Z,99.99
2018-03-07T02:57:41.595Z,99.99
2018-03-07T02:58:56.466Z,99.99
2018-03-07T03:00:11.549Z,99.99
2018-03-07T03:01:26.156Z,99.99
2018-03-07T03:02:40.035Z,99.99
2018-03-07T03:03:54.450Z,99.99
2018-03-07T03:05:08.810Z,99.99
2018-03-07T03:06:23.178Z,99.99
2018-03-07T03:07:37.624Z,99.99
2018-03-07T03:08:52.789Z,99.99
2018-03-07T03:10:07.138Z,99.99
2018-03-07T03:11:21.988Z,99.99
2018-03-07T03:12:37.031Z,99.99
2018-03-07T03:13:52.444Z,99.99
2018-03-07T03:15:06.832Z,99.99
2018-03-07T03:16:21.488Z,99.99
2018-03-07T03:17:35.889Z,99.99
2018-03-07T03:18:50.816Z,99.99
2018-03-07T03:20:05.228Z,99.99
2018-03-07T03:21:19.594Z,99.99
2018-03-07T03:22:34.206Z,99.99
2018-03-07T03:23:48.611Z,99.99
2018-03-07T03:25:03.033Z,99.99
2018-03-07T03:26:18.444Z,99.99
2018-03-07T03:27:32.488Z,99.99
2018-03-07T03:28:47.178Z,99.99
2018-03-07T03:30:01.521Z,99.99
2018-03-07T03:31:16.326Z,99.99
2018-03-07T03:32:31.545Z,99.99
2018-03-07T03:33:45.968Z,99.99
2018-03-07T03:35:00.356Z,99.99
2018-03-07T03:36:15.553Z,99.99
2018-03-07T03:37:29.949Z,99.99
2018-03-07T03:38:45.146Z,99.99
2018-03-07T03:39:59.827Z,99.99
2018-03-07T03:41:14.415Z,99.99
2018-03-07T03:42:28.789Z,99.99
2018-03-07T03:43:43.698Z,99.99
2018-03-07T03:44:58.085Z,99.99
2018-03-07T03:46:12.673Z,99.99
2018-03-07T03:47:27.300Z,99.99
2018-03-07T03:48:42.246Z,99.99
2018-03-07T03:49:56.347Z,99.99
2018-03-07T03:51:10.211Z,99.99
2018-03-07T03:52:24.988Z,99.99
2018-03-07T03:53:40.068Z,99.99
2018-03-07T03:54:54.694Z,99.99
2018-03-07T03:56:09.104Z,99.99
2018-03-07T03:57:23.877Z,99.99
2018-03-07T03:58:38.273Z,99.99
2018-03-07T03:59:52.664Z,99.99
2018-03-07T04:01:07.852Z,99.99
2018-03-07T04:02:22.391Z,99.99
2018-03-07T04:03:37.644Z,99.99
2018-03-07T04:04:51.745Z,99.99
2018-03-07T04:06:06.408Z,99.99
2018-03-07T04:07:21.206Z,99.99
2018-03-07T04:08:35.917Z,99.99
2018-03-07T04:09:51.145Z,99.99
2018-03-07T04:11:05.292Z,99.99
2018-03-07T04:12:19.847Z,99.99
2018-03-07T04:13:34.019Z,99.99
2018-03-07T04:14:48.959Z,99.99
2018-03-07T04:16:04.168Z,99.99
2018-03-07T04:17:19.080Z,99.99
2018-03-07T04:18:33.491Z,99.99
2018-03-07T04:19:48.128Z,99.99
2018-03-07T04:21:02.739Z,99.99
2018-03-07T04:22:18.346Z,99.99
2018-03-07T04:23:32.504Z,99.99
2018-03-07T04:24:47.132Z,99.99
2018-03-07T04:26:19.230Z,99.99
2018-03-07T04:27:34.182Z,99.99
2018-03-07T04:28:48.291Z,99.99
2018-03-07T04:30:02.528Z,99.99
2018-03-07T04:31:16.937Z,99.99
2018-03-07T04:32:31.484Z,99.99
2018-03-07T04:33:46.927Z,99.99
2018-03-07T04:35:01.743Z,99.99
2018-03-07T04:36:16.425Z,99.99
2018-03-07T04:37:31.653Z,99.99
2018-03-07T04:38:46.675Z,99.99
2018-03-07T04:40:01.428Z,99.99
2018-03-07T04:41:15.828Z,99.99
2018-03-07T04:42:30.225Z,99.99
2018-03-07T04:43:45.228Z,99.99
2018-03-07T04:44:59.900Z,99.99
2018-03-07T04:46:14.320Z,99.99
2018-03-07T04:47:29.000Z,99.99
2018-03-07T04:48:43.762Z,99.99
2018-03-07T04:49:58.446Z,99.99
2018-03-07T04:51:13.369Z,99.99
2018-03-07T04:52:28.108Z,99.99
2018-03-07T04:53:42.636Z,99.99
2018-03-07T04:54:57.060Z,99.99
2018-03-07T04:56:11.459Z,99.99
2018-03-07T04:57:26.391Z,99.99
2018-03-07T04:59:03.577Z,99.99
2018-03-07T05:00:18.244Z,99.99
2018-03-07T05:01:32.399Z,99.99
2018-03-07T05:02:46.871Z,99.99
2018-03-07T05:04:01.664Z,99.99
2018-03-07T05:05:16.948Z,99.99
2018-03-07T05:06:31.603Z,99.99
2018-03-07T05:07:46.078Z,99.99
2018-03-07T05:09:00.681Z,99.99
2018-03-07T05:10:14.838Z,99.99
2018-03-07T05:11:29.518Z,99.99
2018-03-07T05:12:44.157Z,99.99
2018-03-07T05:13:59.350Z,99.99
2018-03-07T05:15:14.090Z,99.99
2018-03-07T05:16:27.983Z,99.99
2018-03-07T05:17:43.283Z,99.99
2018-03-07T05:18:57.431Z,99.99
2018-03-07T05:20:11.800Z,99.99
2018-03-07T05:21:26.240Z,99.99
2018-03-07T05:22:41.216Z,99.99
2018-03-07T05:23:55.151Z,99.99
2018-03-07T05:25:08.969Z,99.99
2018-03-07T05:26:23.197Z,99.99
2018-03-07T05:27:37.574Z,99.99
2018-03-07T05:28:52.433Z,99.99
2018-03-07T05:30:07.149Z,99.99
2018-03-07T05:31:58.637Z,99.99
2018-03-07T05:33:13.221Z,99.99
2018-03-07T05:34:27.365Z,99.99
2018-03-07T05:35:40.959Z,99.99
2018-03-07T05:36:55.596Z,99.99
2018-03-07T05:38:09.467Z,99.99
2018-03-07T05:39:24.696Z,99.99
2018-03-07T05:40:38.540Z,99.99
2018-03-07T05:41:53.191Z,99.99
2018-03-07T05:43:07.602Z,99.99
2018-03-07T05:44:22.700Z,99.99
2018-03-07T05:45:37.471Z,99.99
2018-03-07T05:46:52.531Z,99.99
2018-03-07T05:48:06.983Z,99.99
2018-03-07T05:49:21.565Z,99.99
2018-03-07T05:50:36.772Z,99.99
2018-03-07T05:51:51.757Z,99.99
2018-03-07T05:53:06.699Z,99.99
2018-03-07T05:54:21.220Z,99.99
2018-03-07T05:55:35.881Z,99.99
2018-03-07T05:56:50.525Z,99.99
2018-03-07T05:58:05.229Z,99.99
2018-03-07T05:59:19.961Z,99.99
2018-03-07T06:00:34.095Z,99.99
2018-03-07T06:01:49.050Z,99.99
2018-03-07T06:03:03.615Z,99.99
2018-03-07T06:04:18.466Z,99.99
2018-03-07T06:05:33.447Z,99.99
2018-03-07T06:06:47.597Z,99.99
2018-03-07T06:08:02.856Z,99.99
2018-03-07T06:09:17.417Z,99.99
2018-03-07T06:10:32.121Z,99.99
2018-03-07T06:11:46.813Z,99.99
2018-03-07T06:13:01.560Z,99.99
2018-03-07T06:14:16.730Z,99.99
2018-03-07T06:15:30.692Z,99.99
2018-03-07T06:16:45.101Z,99.99
2018-03-07T06:17:59.511Z,99.99
2018-03-07T06:19:13.964Z,99.99
2018-03-07T06:20:28.418Z,99.99
2018-03-07T06:21:43.101Z,99.99
2018-03-07T06:22:58.067Z,99.99
2018-03-07T06:24:12.380Z,99.99
2018-03-07T06:25:26.831Z,99.99
2018-03-07T06:26:41.473Z,99.99
2018-03-07T06:27:56.401Z,99.99
2018-03-07T06:29:10.842Z,99.99
2018-03-07T06:30:25.613Z,99.99
2018-03-07T06:31:39.485Z,99.99
2018-03-07T06:32:53.883Z,99.99
2018-03-07T06:34:08.148Z,99.99
2018-03-07T06:35:23.508Z,99.99
2018-03-07T06:36:38.164Z,99.99
2018-03-07T06:37:52.513Z,99.99
2018-03-07T06:39:07.709Z,99.99
2018-03-07T06:40:23.661Z,99.99
2018-03-07T06:41:38.371Z,99.99
2018-03-07T06:42:53.313Z,99.99
2018-03-07T06:44:07.612Z,99.99
2018-03-07T06:45:22.690Z,99.99
2018-03-07T06:46:37.661Z,99.99
2018-03-07T06:47:52.354Z,99.99
2018-03-07T06:49:06.754Z,99.99
2018-03-07T06:50:22.348Z,99.99
2018-03-07T06:51:37.550Z,99.99
2018-03-07T06:52:51.559Z,99.99
2018-03-07T06:54:06.900Z,99.99
2018-03-07T06:55:21.431Z,99.99
2018-03-07T06:56:35.589Z,99.99
2018-03-07T06:57:49.747Z,99.99
2018-03-07T06:59:04.681Z,99.99
2018-03-07T07:00:20.137Z,99.99
2018-03-07T07:01:34.871Z,99.99
2018-03-07T07:02:49.276Z,99.99
2018-03-07T07:04:03.402Z,99.99
2018-03-07T07:05:18.218Z,99.99
2018-03-07T07:06:33.116Z,99.99
2018-03-07T07:07:47.519Z,99.99
2018-03-07T07:09:01.966Z,99.99
2018-03-07T07:10:27.650Z,99.99
2018-03-07T07:11:42.397Z,99.99
2018-03-07T07:12:57.085Z,99.99
2018-03-07T07:14:11.755Z,99.99
2018-03-07T07:15:25.956Z,99.99
2018-03-07T07:16:40.676Z,99.99
2018-03-07T07:17:55.228Z,99.99
2018-03-07T07:19:09.411Z,99.99
2018-03-07T07:20:24.299Z,99.99
2018-03-07T07:21:38.920Z,99.99
2018-03-07T07:22:53.027Z,99.99
2018-03-07T07:24:07.670Z,99.99
2018-03-07T07:25:22.609Z,99.99
2018-03-07T07:26:37.126Z,99.99
2018-03-07T07:27:51.551Z,99.99
2018-03-07T07:29:05.975Z,99.99
2018-03-07T07:30:19.824Z,99.99
2018-03-07T07:31:34.050Z,99.99
2018-03-07T07:32:48.580Z,99.99
2018-03-07T07:34:03.257Z,99.99
2018-03-07T07:35:17.972Z,99.99
2018-03-07T07:36:32.188Z,99.99
2018-03-07T07:37:46.287Z,99.99
2018-03-07T07:39:00.768Z,99.99
2018-03-07T07:40:14.909Z,99.99
2018-03-07T07:41:29.937Z,99.99
2018-03-07T07:42:45.104Z,99.99
2018-03-07T07:43:59.505Z,99.99
2018-03-07T07:45:13.637Z,99.99
2018-03-07T07:46:27.824Z,99.99
2018-03-07T07:47:43.087Z,99.99
2018-03-07T07:48:57.499Z,99.99
2018-03-07T07:50:12.391Z,99.99
2018-03-07T07:51:27.570Z,99.99
2018-03-07T07:52:42.230Z,99.99
2018-03-07T07:53:56.991Z,99.99
2018-03-07T07:55:11.145Z,99.99
2018-03-07T07:56:25.470Z,99.99
2018-03-07T07:57:40.050Z,99.99
2018-03-07T07:58:54.265Z,99.99
2018-03-07T08:00:09.028Z,99.99
2018-03-07T08:01:23.458Z,99.99
2018-03-07T08:02:38.501Z,99.99
2018-03-07T08:03:52.914Z,99.99
2018-03-07T08:05:07.329Z,99.99
2018-03-07T08:06:22.007Z,99.99
2018-03-07T08:07:37.117Z,99.99
2018-03-07T08:08:51.521Z,99.99
2018-03-07T08:10:06.659Z,99.99
2018-03-07T08:11:21.332Z,99.99
2018-03-07T08:12:36.406Z,99.99
2018-03-07T08:13:51.085Z,99.99
2018-03-07T08:15:21.821Z,99.99
2018-03-07T08:16:36.956Z,99.99
2018-03-07T08:17:51.943Z,99.99
2018-03-07T08:19:06.586Z,99.99
2018-03-07T08:20:21.009Z,99.99
2018-03-07T08:21:35.955Z,99.99
2018-03-07T08:22:49.845Z,99.99
2018-03-07T08:24:04.798Z,99.99
2018-03-07T08:25:20.049Z,99.99
2018-03-07T08:26:34.806Z,99.99
2018-03-07T08:27:48.770Z,99.99
2018-03-07T08:29:02.937Z,99.99
2018-03-07T08:30:17.652Z,99.99
2018-03-07T08:31:31.552Z,99.99
2018-03-07T08:32:46.421Z,99.99
2018-03-07T08:34:01.103Z,99.99
2018-03-07T08:35:15.561Z,99.99
2018-03-07T08:36:30.531Z,99.99
2018-03-07T08:37:45.381Z,99.99
2018-03-07T08:39:00.567Z,99.99
2018-03-07T08:40:15.021Z,99.99
2018-03-07T08:41:30.017Z,99.99
2018-03-07T08:42:45.039Z,99.99
2018-03-07T08:43:59.746Z,99.99
2018-03-07T08:45:14.463Z,99.99
2018-03-07T08:46:28.624Z,99.99
2018-03-07T08:47:43.836Z,99.99
2018-03-07T08:48:59.137Z,99.99
2018-03-07T08:50:13.833Z,99.99
2018-03-07T08:51:28.533Z,99.99
2018-03-07T08:52:42.972Z,99.99
2018-03-07T08:53:57.668Z,99.99
2018-03-07T08:55:12.088Z,99.99
2018-03-07T08:56:26.498Z,99.99
2018-03-07T08:57:40.480Z,99.99
2018-03-07T08:58:54.857Z,99.99
2018-03-07T09:00:09.276Z,99.99
2018-03-07T09:01:23.956Z,99.99
2018-03-07T09:02:38.608Z,99.99
2018-03-07T09:03:53.263Z,99.99
2018-03-07T09:05:07.397Z,99.99
2018-03-07T09:06:21.551Z,99.99
2018-03-07T09:07:35.471Z,99.99
2018-03-07T09:08:50.678Z,99.99
2018-03-07T09:10:05.014Z,99.99
2018-03-07T09:11:20.231Z,99.99
2018-03-07T09:12:35.484Z,99.99
2018-03-07T09:13:49.839Z,99.99
2018-03-07T09:15:03.737Z,99.99
2018-03-07T09:16:17.904Z,99.99
2018-03-07T09:17:32.817Z,99.99
2018-03-07T09:18:47.896Z,99.99
2018-03-07T09:20:02.239Z,99.99
2018-03-07T09:21:16.560Z,99.99
2018-03-07T09:22:37.680Z,99.99
2018-03-07T09:23:53.214Z,99.99
2018-03-07T09:25:08.442Z,99.99
2018-03-07T09:26:23.391Z,99.99
2018-03-07T09:27:38.882Z,99.99
2018-03-07T09:28:53.845Z,99.99
2018-03-07T09:30:08.640Z,99.99
2018-03-07T09:31:23.386Z,99.99
2018-03-07T09:32:37.263Z,99.99
2018-03-07T09:33:52.141Z,99.99
2018-03-07T09:35:06.813Z,99.99
2018-03-07T09:36:20.683Z,99.99
2018-03-07T09:37:35.646Z,99.99
2018-03-07T09:38:49.764Z,99.99
2018-03-07T09:40:04.158Z,99.99
2018-03-07T09:41:18.038Z,99.99
2018-03-07T09:42:32.448Z,99.99
2018-03-07T09:43:47.576Z,99.99
2018-03-07T09:45:02.231Z,99.99
2018-03-07T09:46:16.667Z,99.99
2018-03-07T09:47:31.600Z,99.99
2018-03-07T09:48:46.431Z,99.99
2018-03-07T09:50:01.409Z,99.99
2018-03-07T09:51:16.419Z,99.99
2018-03-07T09:52:30.567Z,99.99
2018-03-07T09:53:45.105Z,99.99
2018-03-07T09:55:00.049Z,99.99
2018-03-07T09:56:15.372Z,99.99
2018-03-07T09:57:30.468Z,99.99
2018-03-07T09:58:44.900Z,99.99
2018-03-07T09:59:59.705Z,99.99
2018-03-07T10:01:14.392Z,99.99
2018-03-07T10:02:29.310Z,99.99
2018-03-07T10:03:44.241Z,99.99
2018-03-07T10:04:59.360Z,99.99
2018-03-07T10:06:13.521Z,99.99
2018-03-07T10:07:29.133Z,99.99
2018-03-07T10:08:44.139Z,99.99
2018-03-07T10:09:58.913Z,99.99
2018-03-07T10:11:13.590Z,99.99
2018-03-07T10:12:28.316Z,99.99
2018-03-07T10:13:42.747Z,99.99
2018-03-07T10:14:57.829Z,99.99
2018-03-07T10:16:12.882Z,99.99
2018-03-07T10:17:27.307Z,99.99
2018-03-07T10:18:41.478Z,99.99
2018-03-07T10:19:56.314Z,99.99
2018-03-07T10:21:11.305Z,99.99
2018-03-07T10:22:25.729Z,99.99
2018-03-07T10:23:40.886Z,99.99
2018-03-07T10:24:55.600Z,99.99
2018-03-07T10:26:10.410Z,99.99
2018-03-07T10:27:25.365Z,99.99
2018-03-07T10:28:39.932Z,99.99
2018-03-07T10:29:54.542Z,99.99
2018-03-07T10:31:08.971Z,99.99
2018-03-07T10:32:24.044Z,99.99
2018-03-07T10:33:38.464Z,99.99
2018-03-07T10:34:53.425Z,99.99
2018-03-07T10:36:07.663Z,99.99
2018-03-07T10:37:21.867Z,99.99
2018-03-07T10:38:36.813Z,99.99
2018-03-07T10:39:51.753Z,99.99
2018-03-07T10:41:06.657Z,99.99
2018-03-07T10:42:21.319Z,99.99
2018-03-07T10:43:35.209Z,99.99
2018-03-07T10:44:50.624Z,99.99
2018-03-07T10:46:05.852Z,99.99
2018-03-07T10:47:20.293Z,99.99
2018-03-07T10:48:34.711Z,99.99
2018-03-07T10:49:49.123Z,99.99
2018-03-07T10:51:03.486Z,99.99
2018-03-07T10:52:18.487Z,99.99
2018-03-07T10:53:33.953Z,99.99
2018-03-07T10:54:48.690Z,99.99
2018-03-07T10:56:03.530Z,99.99
2018-03-07T10:57:18.409Z,99.99
2018-03-07T10:58:33.955Z,99.99
2018-03-07T10:59:48.922Z,99.99
2018-03-07T11:01:03.454Z,99.99
2018-03-07T11:02:17.883Z,99.99
2018-03-07T11:03:34.346Z,99.99
2018-03-07T11:04:49.316Z,99.99
2018-03-07T11:06:04.730Z,99.99
2018-03-07T11:07:19.143Z,99.99
2018-03-07T11:08:33.859Z,99.99
2018-03-07T11:09:48.012Z,99.99
2018-03-07T11:11:02.957Z,99.99
2018-03-07T11:12:17.371Z,99.99
2018-03-07T11:13:32.349Z,99.99
2018-03-07T11:14:47.034Z,99.99
2018-03-07T11:16:01.777Z,99.99
2018-03-07T11:17:17.063Z,99.99
2018-03-07T11:18:31.224Z,99.99
2018-03-07T11:19:45.900Z,99.99
2018-03-07T11:21:00.589Z,99.99
2018-03-07T11:22:14.983Z,99.99
2018-03-07T11:23:29.968Z,99.99
2018-03-07T11:24:44.307Z,99.99
2018-03-07T11:25:58.992Z,99.99
2018-03-07T11:27:14.023Z,99.99
2018-03-07T11:28:28.447Z,99.99
2018-03-07T11:29:43.255Z,99.99
2018-03-07T11:30:58.397Z,99.99
2018-03-07T11:32:12.972Z,99.99
2018-03-07T11:33:27.624Z,99.99
2018-03-07T11:34:42.396Z,99.99
2018-03-07T11:35:56.815Z,99.99
2018-03-07T11:37:12.239Z,99.99
2018-03-07T11:38:26.366Z,99.99
2018-03-07T11:39:41.010Z,99.99
2018-03-07T11:40:55.727Z,99.99
2018-03-07T11:42:10.625Z,99.99
2018-03-07T11:43:24.496Z,99.99
2018-03-07T11:44:38.690Z,99.22
2018-03-07T11:45:53.847Z,98.27
2018-03-07T11:47:07.763Z,97.99
2018-03-07T11:48:22.443Z,97.32
2018-03-07T11:49:37.145Z,97.61
2018-03-07T11:50:51.533Z,97.99
2018-03-07T11:52:06.044Z,97.32
2018-03-07T11:53:20.746Z,96.84
2018-03-07T11:54:35.470Z,96.56
2018-03-07T11:55:50.144Z,97.89
2018-03-07T11:57:04.833Z,97.61
2018-03-07T11:58:19.384Z,97.61
2018-03-07T11:59:33.809Z,97.22
2018-03-07T12:00:48.828Z,97.99
2018-03-07T12:02:02.984Z,96.94
2018-03-07T12:03:18.001Z,98.65
2018-03-07T12:04:33.204Z,98.27
2018-03-07T12:05:48.437Z,99.08
2018-03-07T12:07:03.648Z,98.32
2018-03-07T12:08:17.907Z,98.22
2018-03-07T12:09:32.571Z,98.6
2018-03-07T12:10:46.784Z,97.65
2018-03-07T12:12:00.953Z,97.51
2018-03-07T12:13:15.888Z,95.79
2018-03-07T12:14:30.588Z,96.08
2018-03-07T12:15:45.744Z,95.7
2018-03-07T12:17:00.457Z,95.89
2018-03-07T12:18:15.355Z,94.65
2018-03-07T12:19:30.660Z,94.41
2018-03-07T12:20:45.068Z,94.32
2018-03-07T12:22:00.486Z,94.46
2018-03-07T12:23:15.605Z,94.37
2018-03-07T12:24:30.302Z,94.84
2018-03-07T12:25:44.734Z,95.17
2018-03-07T12:26:59.194Z,95.75
2018-03-07T12:28:13.083Z,96.6
2018-03-07T12:29:27.575Z,96.7
2018-03-07T12:30:42.285Z,96.32
2018-03-07T12:31:56.713Z,96.6
2018-03-07T12:33:11.484Z,96.41
2018-03-07T12:34:26.438Z,95.75
2018-03-07T12:35:41.478Z,95.65
2018-03-07T12:37:16.640Z,95.46
2018-03-07T12:38:32.258Z,96.7
2018-03-07T12:39:46.726Z,96.51
2018-03-07T12:41:01.158Z,95.75
2018-03-07T12:42:14.776Z,95.65
2018-03-07T12:43:30.111Z,94.7
2018-03-07T12:44:44.259Z,94.46
2018-03-07T12:45:59.260Z,93.32
2018-03-07T12:47:13.776Z,93.7
2018-03-07T12:48:28.898Z,93.22
2018-03-07T12:49:43.601Z,92.46
2018-03-07T12:50:58.844Z,91.41
2018-03-07T12:52:13.505Z,91.31
2018-03-07T12:53:27.678Z,91.69
2018-03-07T12:54:42.531Z,91.31
2018-03-07T12:55:57.701Z,91.13
2018-03-07T12:57:12.681Z,91.22
2018-03-07T12:58:26.936Z,91.31
2018-03-07T12:59:41.788Z,91.5
2018-03-07T13:00:56.270Z,91.41
2018-03-07T13:02:11.045Z,90.64
2018-03-07T13:03:25.450Z,90.64
2018-03-07T13:04:39.572Z,90.17
2018-03-07T13:05:54.024Z,90.74
2018-03-07T13:07:08.672Z,90.64
2018-03-07T13:08:24.448Z,90.74
2018-03-07T13:09:57.169Z,91.69
2018-03-07T13:11:12.134Z,91.17
2018-03-07T13:12:26.556Z,91.46
2018-03-07T13:13:41.143Z,92.32
2018-03-07T13:15:01.731Z,92.89
2018-03-07T13:16:16.165Z,92.6
2018-03-07T13:17:31.528Z,93.17
2018-03-07T13:18:46.237Z,92.89
2018-03-07T13:20:01.450Z,93.27
2018-03-07T13:21:16.336Z,93.46
2018-03-07T13:22:30.740Z,92.69
2018-03-07T13:23:45.617Z,92.13
2018-03-07T13:24:59.498Z,92.55
2018-03-07T13:26:14.194Z,91.88
2018-03-07T13:27:29.138Z,90.84
2018-03-07T13:28:43.841Z,90.36
2018-03-07T13:29:59.113Z,90.17
2018-03-07T13:31:13.820Z,90.26
2018-03-07T13:32:28.778Z,89.4
2018-03-07T13:33:42.846Z,88.69
2018-03-07T13:34:57.400Z,88.12
2018-03-07T13:36:11.844Z,87.26
2018-03-07T13:37:26.791Z,87.07
2018-03-07T13:38:40.662Z,87.16
2018-03-07T13:39:55.264Z,87.26
2018-03-07T13:41:09.679Z,87.64
2018-03-07T13:42:55.327Z,88.07
2018-03-07T13:44:10.183Z,88.07
2018-03-07T13:45:24.857Z,87.79
2018-03-07T13:46:39.865Z,88.93
2018-03-07T13:47:54.042Z,89.31
2018-03-07T13:49:09.516Z,89.89
2018-03-07T13:50:24.945Z,91.94
2018-03-07T13:51:39.708Z,93.17
2018-03-07T13:52:54.156Z,94.22
2018-03-07T13:54:08.577Z,95.75
2018-03-07T13:55:22.996Z,95.32
2018-03-07T13:56:37.998Z,95.27
2018-03-07T13:57:52.870Z,95.27
2018-03-07T13:59:07.369Z,95.65
2018-03-07T14:00:21.760Z,94.79
2018-03-07T14:01:36.184Z,94.7
2018-03-07T14:02:50.656Z,94.6
2018-03-07T14:04:05.084Z,94.41
2018-03-07T14:05:20.119Z,93.74
2018-03-07T14:06:34.565Z,93.08
2018-03-07T14:07:48.972Z,92.5
2018-03-07T14:09:03.139Z,92.41
2018-03-07T14:10:17.785Z,92.32
2018-03-07T14:11:31.938Z,91.94
2018-03-07T14:12:46.864Z,91.27
2018-03-07T14:14:01.000Z,90.7
2018-03-07T14:15:16.838Z,89.98
2018-03-07T14:16:30.959Z,89.79
2018-03-07T14:17:44.840Z,88.64
2018-03-07T14:18:59.129Z,87.93
2018-03-07T14:20:14.560Z,88.55
2018-03-07T14:21:29.536Z,88.07
2018-03-07T14:22:43.926Z,87.35
2018-03-07T14:23:58.605Z,86.98
2018-03-07T14:25:13.176Z,87.07
2018-03-07T14:26:27.896Z,85.73
2018-03-07T14:27:42.157Z,84.63
2018-03-07T14:28:56.973Z,85.01
2018-03-07T14:30:11.425Z,84.63
2018-03-07T14:31:26.426Z,84.44
2018-03-07T14:32:40.854Z,84.82
2018-03-07T14:33:55.824Z,84.92
2018-03-07T14:35:10.047Z,85.45
2018-03-07T14:36:25.212Z,85.45
2018-03-07T14:37:39.903Z,85.25
2018-03-07T14:38:54.831Z,85.54
2018-03-07T14:40:09.559Z,85.73
2018-03-07T14:41:24.072Z,85.73
2018-03-07T14:42:38.416Z,85.45
2018-03-07T14:43:52.858Z,85.06
2018-03-07T14:45:07.275Z,85.45
2018-03-07T14:46:21.821Z,85.54
2018-03-07T14:47:36.239Z,85.93
2018-03-07T14:49:06.309Z,86.49
2018-03-07T14:50:20.493Z,86.02
2018-03-07T14:51:35.203Z,86.65
2018-03-07T14:52:49.042Z,87.4
2018-03-07T14:54:03.659Z,87.21
2018-03-07T14:55:18.433Z,87.4
2018-03-07T14:56:33.614Z,87.12
2018-03-07T14:57:48.019Z,87.31
2018-03-07T14:59:02.736Z,87.21
2018-03-07T15:00:17.731Z,87.4
2018-03-07T15:01:32.467Z,86.93
2018-03-07T15:02:46.669Z,86.74
2018-03-07T15:04:01.362Z,86.26
2018-03-07T15:05:15.760Z,86.36
2018-03-07T15:06:30.366Z,86.07
2018-03-07T15:07:44.794Z,85.78
2018-03-07T15:09:00.062Z,85.69
2018-03-07T15:10:15.036Z,85.69
2018-03-07T15:11:28.835Z,85.31
2018-03-07T15:12:42.764Z,86.36
2018-03-07T15:13:56.968Z,86.16
2018-03-07T15:15:11.688Z,86.07
2018-03-07T15:16:26.811Z,85.69
2018-03-07T15:17:41.244Z,86.36
2018-03-07T15:18:55.404Z,86.4
2018-03-07T15:20:10.355Z,86.07
2018-03-07T15:21:54.684Z,86.55
2018-03-07T15:23:09.554Z,87.12
2018-03-07T15:24:24.473Z,86.74
2018-03-07T15:25:39.154Z,87.6
2018-03-07T15:26:54.440Z,87.79
2018-03-07T15:28:08.582Z,88.36
2018-03-07T15:29:23.828Z,88.36
2018-03-07T15:30:38.224Z,88.31
2018-03-07T15:31:52.625Z,88.84
2018-03-07T15:33:06.759Z,88.26
2018-03-07T15:34:21.424Z,88.45
2018-03-07T15:35:36.157Z,88.55
2018-03-07T15:36:51.163Z,88.31
2018-03-07T15:38:06.342Z,88.89
2018-03-07T15:39:20.733Z,88.89
2018-03-07T15:40:35.202Z,89.36
2018-03-07T15:41:50.183Z,89.75
2018-03-07T15:43:05.595Z,90.31
2018-03-07T15:44:19.473Z,89.65
2018-03-07T15:45:34.919Z,89.65
2018-03-07T15:46:49.392Z,89.94
2018-03-07T15:48:04.068Z,89.94
2018-03-07T15:49:19.024Z,90.79
2018-03-07T15:50:33.385Z,91.08
2018-03-07T15:51:48.033Z,90.7
2018-03-07T15:53:02.927Z,90.6
2018-03-07T15:54:17.892Z,91.17
2018-03-07T15:55:31.799Z,91.27
2018-03-07T15:56:47.003Z,91.46
2018-03-07T15:58:01.601Z,91.27
2018-03-07T15:59:15.766Z,91.27
2018-03-07T16:00:30.504Z,91.27
2018-03-07T16:01:45.210Z,91.17
2018-03-07T16:02:59.753Z,91.17
2018-03-07T16:04:13.711Z,91.46
2018-03-07T16:05:28.846Z,91.36
2018-03-07T16:06:43.795Z,91.36
2018-03-07T16:07:58.224Z,91.08
2018-03-07T16:09:12.098Z,91.65
2018-03-07T16:10:26.269Z,91.36
2018-03-07T16:11:40.712Z,91.08
2018-03-07T16:12:54.891Z,91.17
2018-03-07T16:14:09.599Z,91.55
2018-03-07T16:15:24.235Z,91.55